createdAt,value
2024-01-29T00:01:31.465Z,11.07
2024-01-29T00:04:33.621Z,11.07
2024-01-29T00:07:35.502Z,12.27
2024-01-29T00:10:37.473Z,11.40
2024-01-29T00:13:39.444Z,9.50
2024-01-29T00:16:41.489Z,10.77
2024-01-29T00:19:43.446Z,9.57
2024-01-29T00:22:45.351Z,10.63
2024-01-29T00:25:47.833Z,9.70
2024-01-29T00:28:49.727Z,9.40
2024-01-29T00:31:51.582Z,8.40
2024-01-29T00:34:54.908Z,7.40
2024-01-29T00:37:56.808Z,9.53
2024-01-29T00:40:59.137Z,8.83
2024-01-29T00:44:00.990Z,7.47
2024-01-29T00:47:03.500Z,9.57
2024-01-29T00:50:05.933Z,8.43
2024-01-29T00:53:07.800Z,7.90
2024-01-29T00:56:09.715Z,9.00
2024-01-29T00:59:11.601Z,8.77
2024-01-29T01:02:13.567Z,11.00
2024-01-29T01:05:15.532Z,10.93
2024-01-29T01:08:17.787Z,8.77
2024-01-29T01:11:19.765Z,9.37
2024-01-29T01:14:22.233Z,8.07
2024-01-29T01:17:24.480Z,8.77
2024-01-29T01:20:26.335Z,10.77
2024-01-29T01:23:28.163Z,9.73
2024-01-29T01:26:30.049Z,10.80
2024-01-29T01:29:31.898Z,10.50
2024-01-29T01:32:33.986Z,9.53
2024-01-29T01:35:35.920Z,8.93
2024-01-29T01:38:37.756Z,7.63
2024-01-29T01:41:39.589Z,7.87
2024-01-29T01:44:41.638Z,8.60
2024-01-29T01:47:43.855Z,9.40
2024-01-29T01:50:45.649Z,10.17
2024-01-29T01:53:49.489Z,10.30
2024-01-29T01:56:51.901Z,8.47
2024-01-29T01:59:53.841Z,9.40
2024-01-29T02:02:56.078Z,11.20
2024-01-29T02:05:58.104Z,8.30
2024-01-29T02:09:01.111Z,7.97
2024-01-29T02:12:03.076Z,9.73
2024-01-29T02:15:05.704Z,7.07
2024-01-29T02:18:07.885Z,9.23
2024-01-29T02:21:09.944Z,7.03
2024-01-29T02:24:11.784Z,8.07
2024-01-29T02:27:13.588Z,9.17
2024-01-29T02:30:15.511Z,9.97
2024-01-29T02:33:17.484Z,7.70
2024-01-29T02:36:19.524Z,10.57
2024-01-29T02:39:21.363Z,7.33
2024-01-29T02:42:23.483Z,8.80
2024-01-29T02:45:25.263Z,7.57
2024-01-29T02:48:27.380Z,9.27
2024-01-29T02:51:29.310Z,7.57
2024-01-29T02:54:31.332Z,8.73
2024-01-29T02:57:33.235Z,8.23
2024-01-29T03:00:35.260Z,7.80
2024-01-29T03:03:37.408Z,7.40
2024-01-29T03:06:39.425Z,8.87
2024-01-29T03:09:41.352Z,8.47
2024-01-29T03:12:43.244Z,7.23
2024-01-29T03:15:46.457Z,8.30
2024-01-29T03:18:48.380Z,10.43
2024-01-29T03:21:50.251Z,10.43
2024-01-29T03:24:52.859Z,9.07
2024-01-29T03:27:54.980Z,8.13
2024-01-29T03:30:56.829Z,8.20
2024-01-29T03:33:58.957Z,8.30
2024-01-29T03:37:01.056Z,8.53
2024-01-29T03:40:06.651Z,11.37
2024-01-29T03:43:08.585Z,9.37
2024-01-29T03:46:10.532Z,13.27
2024-01-29T03:49:12.502Z,7.17
2024-01-29T03:52:14.360Z,8.97
2024-01-29T03:55:16.381Z,8.37
2024-01-29T03:58:18.570Z,6.23
2024-01-29T04:01:29.020Z,8.07
2024-01-29T04:04:31.226Z,10.77
2024-01-29T04:07:33.474Z,7.20
2024-01-29T04:10:35.645Z,7.77
2024-01-29T04:13:37.655Z,8.07
2024-01-29T04:16:39.985Z,8.00
2024-01-29T04:19:41.813Z,7.63
2024-01-29T04:22:43.784Z,9.20
2024-01-29T04:25:46.000Z,7.07
2024-01-29T04:28:47.952Z,7.47
2024-01-29T04:31:49.848Z,6.87
2024-01-29T04:34:51.953Z,8.07
2024-01-29T04:37:55.064Z,7.63
2024-01-29T04:40:56.902Z,7.13
2024-01-29T04:43:58.726Z,7.37
2024-01-29T04:47:00.892Z,8.37
2024-01-29T04:50:03.337Z,8.40
2024-01-29T04:53:05.169Z,8.73
2024-01-29T04:56:08.002Z,6.97
2024-01-29T04:59:10.525Z,6.83
2024-01-29T05:02:12.420Z,7.47
2024-01-29T05:05:14.420Z,9.13
2024-01-29T05:08:16.986Z,8.47
2024-01-29T05:11:18.949Z,9.00
2024-01-29T05:14:20.795Z,6.67
2024-01-29T05:17:22.945Z,9.97
2024-01-29T05:20:25.360Z,10.20
2024-01-29T05:23:27.148Z,9.47
2024-01-29T05:26:28.959Z,8.93
2024-01-29T05:29:32.613Z,10.17
2024-01-29T05:32:35.199Z,10.13
2024-01-29T05:35:38.230Z,10.63
2024-01-29T05:38:40.014Z,10.60
2024-01-29T05:41:41.959Z,8.77
2024-01-29T05:44:43.801Z,8.20
2024-01-29T05:47:45.680Z,11.67
2024-01-29T05:50:48.252Z,11.10
2024-01-29T05:53:51.060Z,10.30
2024-01-29T05:56:53.215Z,12.60
2024-01-29T05:59:55.175Z,11.77
2024-01-29T06:02:57.526Z,7.90
2024-01-29T06:05:59.482Z,9.10
2024-01-29T06:09:01.466Z,10.07
2024-01-29T06:12:03.714Z,11.87
2024-01-29T06:15:06.612Z,12.90
2024-01-29T06:18:08.731Z,9.37
2024-01-29T06:21:10.574Z,9.30
2024-01-29T06:24:12.813Z,10.13
2024-01-29T06:27:14.875Z,8.07
2024-01-29T06:30:16.921Z,9.17
2024-01-29T06:33:18.787Z,11.50
2024-01-29T06:36:22.011Z,9.03
2024-01-29T06:39:25.600Z,9.37
2024-01-29T06:42:27.533Z,11.13
2024-01-29T06:45:35.115Z,8.20
2024-01-29T06:48:38.789Z,11.07
2024-01-29T06:51:40.631Z,8.90
2024-01-29T06:54:42.510Z,12.10
2024-01-29T06:57:44.957Z,11.37
2024-01-29T07:00:47.432Z,16.03
2024-01-29T07:03:49.463Z,11.67
2024-01-29T07:06:51.458Z,10.57
2024-01-29T07:09:56.112Z,11.07
2024-01-29T07:12:58.250Z,13.10
2024-01-29T07:16:00.719Z,18.97
2024-01-29T07:19:02.935Z,25.90
2024-01-29T07:22:10.456Z,26.67
2024-01-29T07:25:12.570Z,22.23
2024-01-29T07:28:14.545Z,26.23
2024-01-29T07:31:18.552Z,22.63
2024-01-29T07:34:20.713Z,21.00
2024-01-29T07:37:22.667Z,23.10
2024-01-29T07:40:24.484Z,16.33
2024-01-29T07:43:26.306Z,18.27
2024-01-29T07:46:28.357Z,17.47
2024-01-29T07:49:33.209Z,13.33
2024-01-29T07:52:35.218Z,12.50
2024-01-29T07:55:37.220Z,12.07
2024-01-29T07:58:39.024Z,10.67
2024-01-29T08:01:41.219Z,11.90
2024-01-29T08:04:43.284Z,11.63
2024-01-29T08:07:45.149Z,12.37
2024-01-29T08:10:49.261Z,12.43
2024-01-29T08:13:51.619Z,10.77
2024-01-29T08:16:53.599Z,10.87
2024-01-29T08:19:55.633Z,13.40
2024-01-29T08:22:57.605Z,11.10
2024-01-29T08:25:59.445Z,10.53
2024-01-29T08:29:01.651Z,12.60
2024-01-29T08:32:05.355Z,11.77
2024-01-29T08:35:07.629Z,12.07
2024-01-29T08:38:12.147Z,14.03
2024-01-29T08:41:14.630Z,9.27
2024-01-29T08:44:16.531Z,10.20
2024-01-29T08:47:18.499Z,15.43
2024-01-29T08:50:20.338Z,11.23
2024-01-29T08:53:22.177Z,12.97
2024-01-29T08:56:24.032Z,13.43
2024-01-29T08:59:31.058Z,14.97
2024-01-29T09:02:33.423Z,10.77
2024-01-29T09:05:35.511Z,10.57
2024-01-29T09:08:37.612Z,11.80
2024-01-29T09:11:39.619Z,9.80
2024-01-29T09:14:41.570Z,10.07
2024-01-29T09:17:46.459Z,10.20
2024-01-29T09:20:49.393Z,10.43
2024-01-29T09:23:51.572Z,14.50
2024-01-29T09:26:53.632Z,14.57
2024-01-29T09:29:55.518Z,11.93
2024-01-29T09:33:03.475Z,11.30
2024-01-29T09:36:12.837Z,10.27
2024-01-29T09:39:14.829Z,14.73
2024-01-29T09:42:19.540Z,12.90
2024-01-29T09:45:27.391Z,13.30
2024-01-29T09:48:33.621Z,8.33
2024-01-29T09:51:37.130Z,9.13
2024-01-29T09:54:41.910Z,10.33
2024-01-29T09:57:44.882Z,9.03
2024-01-29T10:00:46.754Z,11.87
2024-01-29T10:03:48.816Z,9.83
2024-01-29T10:06:51.007Z,12.63
2024-01-29T10:09:53.442Z,8.70
2024-01-29T10:13:08.857Z,10.40
2024-01-29T10:16:10.739Z,10.20
2024-01-29T10:19:14.283Z,9.17
2024-01-29T10:22:16.505Z,11.73
2024-01-29T10:25:19.138Z,9.80
2024-01-29T10:28:21.669Z,11.30
2024-01-29T10:31:23.472Z,11.17
2024-01-29T10:34:25.557Z,7.23
2024-01-29T10:37:28.766Z,8.37
2024-01-29T10:40:35.432Z,6.27
2024-01-29T10:43:39.594Z,10.33
2024-01-29T10:46:43.102Z,10.03
2024-01-29T10:49:46.388Z,9.23
2024-01-29T10:52:49.420Z,8.97
2024-01-29T10:55:53.238Z,8.10
2024-01-29T10:59:02.420Z,9.07
2024-01-29T11:02:07.044Z,10.63
2024-01-29T11:05:11.142Z,8.67
2024-01-29T11:08:21.407Z,9.47
2024-01-29T11:11:24.698Z,8.27
2024-01-29T11:14:26.657Z,7.67
2024-01-29T11:17:28.911Z,9.03
2024-01-29T11:20:33.323Z,9.37
2024-01-29T11:23:43.634Z,7.47
2024-01-29T11:26:45.799Z,7.50
2024-01-29T11:29:48.249Z,8.43
2024-01-29T11:32:51.776Z,9.70
2024-01-29T11:35:57.842Z,9.10
2024-01-29T11:39:10.342Z,8.90
2024-01-29T11:42:12.771Z,7.57
2024-01-29T11:45:15.716Z,8.63
2024-01-29T11:48:20.122Z,11.93
2024-01-29T11:51:22.330Z,10.03
2024-01-29T11:54:25.537Z,6.57
2024-01-29T11:57:30.802Z,8.27
2024-01-29T12:00:32.634Z,8.03
2024-01-29T12:03:36.728Z,8.83
2024-01-29T12:06:39.992Z,8.97
2024-01-29T12:09:41.959Z,8.53
2024-01-29T12:12:44.196Z,7.67
2024-01-29T12:15:47.177Z,11.50
2024-01-29T12:18:50.976Z,7.50
2024-01-29T12:21:53.012Z,10.93
2024-01-29T12:24:57.931Z,8.43
2024-01-29T12:28:12.428Z,9.93
2024-01-29T12:31:15.809Z,8.87
2024-01-29T12:34:24.727Z,10.20
2024-01-29T12:37:27.992Z,10.20
2024-01-29T12:40:29.936Z,7.20
2024-01-29T12:43:31.809Z,8.87
2024-01-29T12:46:33.674Z,11.13
2024-01-29T12:49:35.614Z,9.73
2024-01-29T12:52:37.671Z,7.73
2024-01-29T12:55:43.353Z,9.97
2024-01-29T12:58:45.111Z,9.83
2024-01-29T13:01:47.244Z,9.50
2024-01-29T13:04:49.469Z,9.93
2024-01-29T13:07:51.330Z,8.93
2024-01-29T13:10:55.066Z,9.07
2024-01-29T13:13:57.003Z,7.43
2024-01-29T13:17:01.362Z,8.27
2024-01-29T13:20:07.333Z,10.30
2024-01-29T13:23:10.809Z,6.33
2024-01-29T13:26:12.606Z,7.10
2024-01-29T13:29:14.496Z,10.30
2024-01-29T13:32:16.409Z,8.90
2024-01-29T13:35:18.420Z,7.70
2024-01-29T13:38:21.931Z,8.87
2024-01-29T13:41:24.816Z,10.00
2024-01-29T13:44:27.045Z,11.37
2024-01-29T13:47:30.164Z,9.20
2024-01-29T13:50:32.466Z,9.17
2024-01-29T13:53:34.320Z,8.20
2024-01-29T13:56:36.218Z,7.77
2024-01-29T13:59:38.040Z,9.07
2024-01-29T14:02:39.884Z,8.33
2024-01-29T14:05:42.700Z,7.10
2024-01-29T14:08:44.660Z,7.37
2024-01-29T14:11:46.554Z,6.97
2024-01-29T14:14:48.606Z,9.43
2024-01-29T14:17:50.828Z,8.90
2024-01-29T14:20:54.205Z,9.63
2024-01-29T14:23:56.005Z,9.50
2024-01-29T14:26:58.344Z,10.37
2024-01-29T14:30:00.874Z,13.07
2024-01-29T14:33:03.202Z,9.83
2024-01-29T14:36:05.356Z,9.90
2024-01-29T14:39:07.176Z,10.17
2024-01-29T14:42:09.057Z,9.73
2024-01-29T14:45:11.660Z,14.57
2024-01-29T14:48:13.715Z,13.87
2024-01-29T14:51:15.886Z,11.77
2024-01-29T14:54:17.841Z,11.60
2024-01-29T14:57:19.803Z,11.03
2024-01-29T15:00:22.213Z,10.43
2024-01-29T15:03:24.203Z,11.97
2024-01-29T15:06:26.082Z,12.77
2024-01-29T15:09:28.127Z,13.73
2024-01-29T15:12:30.309Z,13.83
2024-01-29T15:15:33.978Z,14.40
2024-01-29T15:18:36.826Z,13.63
2024-01-29T15:21:38.789Z,11.17
2024-01-29T15:24:40.980Z,11.97
2024-01-29T15:27:44.741Z,15.07
2024-01-29T15:30:46.711Z,15.60
2024-01-29T15:33:52.620Z,16.90
2024-01-29T15:36:55.076Z,15.57
2024-01-29T15:39:57.093Z,18.07
2024-01-29T15:43:00.420Z,15.53
2024-01-29T15:46:02.355Z,13.70
2024-01-29T15:49:04.248Z,14.73
2024-01-29T15:52:07.016Z,15.40
2024-01-29T15:55:09.660Z,13.53
2024-01-29T15:58:11.641Z,15.50
2024-01-29T16:01:14.162Z,21.80
2024-01-29T16:04:16.246Z,15.57
2024-01-29T16:07:19.032Z,16.37
2024-01-29T16:10:20.996Z,17.20
2024-01-29T16:13:23.132Z,20.83
2024-01-29T16:16:25.079Z,14.13
2024-01-29T16:19:27.496Z,31.80
2024-01-29T16:22:29.436Z,37.53
2024-01-29T16:25:31.788Z,31.23
2024-01-29T16:28:33.667Z,22.60
2024-01-29T16:31:42.028Z,22.13
2024-01-29T16:34:44.311Z,21.73
2024-01-29T16:37:46.208Z,17.30
2024-01-29T16:40:48.039Z,19.50
2024-01-29T16:43:50.591Z,20.20
2024-01-29T16:46:52.521Z,23.03
2024-01-29T16:49:54.533Z,21.77
2024-01-29T16:52:56.640Z,18.47
2024-01-29T16:55:58.516Z,17.83
2024-01-29T16:59:02.315Z,20.73
2024-01-29T17:02:05.481Z,16.03
2024-01-29T17:05:09.900Z,16.13
2024-01-29T17:08:15.424Z,17.60
2024-01-29T17:11:18.380Z,17.87
2024-01-29T17:14:20.438Z,18.50
2024-01-29T17:17:22.363Z,21.77
2024-01-29T17:20:24.240Z,17.03
2024-01-29T17:23:27.441Z,19.70
2024-01-29T17:26:29.270Z,20.20
2024-01-29T17:29:31.818Z,13.13
2024-01-29T17:32:33.909Z,12.93
2024-01-29T17:35:35.761Z,13.53
2024-01-29T17:38:37.986Z,12.03
2024-01-29T17:41:40.084Z,12.93
2024-01-29T17:44:43.097Z,12.00
2024-01-29T17:47:45.629Z,12.13
2024-01-29T17:50:47.576Z,12.87
2024-01-29T17:53:50.919Z,12.07
2024-01-29T17:56:55.078Z,12.07
2024-01-29T17:59:57.082Z,14.03
2024-01-29T18:02:59.223Z,14.87
2024-01-29T18:06:01.145Z,14.87
2024-01-29T18:09:03.162Z,12.53
2024-01-29T18:12:05.324Z,10.30
2024-01-29T18:15:08.484Z,12.67
2024-01-29T18:18:10.355Z,15.60
2024-01-29T18:21:12.273Z,15.23
2024-01-29T18:24:14.152Z,16.67
2024-01-29T18:27:16.063Z,16.23
2024-01-29T18:30:18.631Z,16.83
2024-01-29T18:33:20.646Z,17.23
2024-01-29T18:36:22.670Z,17.83
2024-01-29T18:39:24.486Z,17.33
2024-01-29T18:42:26.235Z,17.87
2024-01-29T18:45:28.058Z,15.23
2024-01-29T18:48:29.975Z,13.00
2024-01-29T18:51:32.876Z,16.87
2024-01-29T18:54:35.127Z,22.23
2024-01-29T18:57:37.108Z,24.93
2024-01-29T19:00:38.961Z,17.77
2024-01-29T19:03:40.969Z,19.73
2024-01-29T19:06:43.227Z,24.23
2024-01-29T19:09:45.240Z,24.20
2024-01-29T19:12:47.182Z,21.50
2024-01-29T19:15:49.891Z,21.67
2024-01-29T19:18:52.264Z,28.27
2024-01-29T19:21:55.916Z,43.20
2024-01-29T19:24:57.966Z,24.93
2024-01-29T19:28:00.019Z,20.33
2024-01-29T19:31:02.659Z,19.77
2024-01-29T19:34:05.837Z,26.23
2024-01-29T19:37:07.824Z,24.93
2024-01-29T19:40:13.641Z,24.70
2024-01-29T19:43:15.524Z,26.93
2024-01-29T19:46:17.509Z,21.37
2024-01-29T19:49:19.611Z,19.73
2024-01-29T19:52:21.494Z,25.10
2024-01-29T19:55:23.666Z,28.30
2024-01-29T19:58:25.529Z,25.10
2024-01-29T20:01:27.520Z,22.23
2024-01-29T20:04:29.575Z,48.27
2024-01-29T20:07:33.671Z,25.23
2024-01-29T20:10:35.638Z,31.50
2024-01-29T20:13:38.753Z,26.03
2024-01-29T20:16:40.614Z,23.47
2024-01-29T20:19:42.707Z,21.93
2024-01-29T20:22:44.678Z,24.87
2024-01-29T20:25:49.914Z,27.03
2024-01-29T20:28:53.533Z,40.97
2024-01-29T20:31:55.369Z,22.90
2024-01-29T20:34:57.347Z,21.70
2024-01-29T20:37:59.982Z,30.23
2024-01-29T20:41:05.245Z,28.87
2024-01-29T20:44:07.251Z,28.87
2024-01-29T20:47:09.026Z,23.67
2024-01-29T20:50:11.160Z,24.77
2024-01-29T20:53:13.317Z,28.70
2024-01-29T20:56:16.369Z,22.23
2024-01-29T20:59:18.156Z,22.30
2024-01-29T21:02:20.024Z,24.80
2024-01-29T21:05:22.878Z,20.00
2024-01-29T21:08:24.910Z,24.17
2024-01-29T21:11:28.381Z,20.27
2024-01-29T21:14:30.249Z,17.37
2024-01-29T21:17:32.349Z,17.10
2024-01-29T21:20:34.212Z,20.43
2024-01-29T21:23:36.835Z,19.33
2024-01-29T21:26:38.937Z,19.37
2024-01-29T21:29:40.787Z,19.50
2024-01-29T21:32:42.681Z,18.83
2024-01-29T21:35:44.612Z,17.90
2024-01-29T21:38:46.461Z,18.50
2024-01-29T21:41:49.959Z,20.27
2024-01-29T21:44:51.781Z,17.10
2024-01-29T21:47:53.678Z,21.63
2024-01-29T21:50:55.604Z,18.17
2024-01-29T21:53:57.381Z,23.10
2024-01-29T21:56:59.681Z,19.97
2024-01-29T22:00:01.867Z,21.50
2024-01-29T22:03:04.695Z,23.50
2024-01-29T22:06:06.610Z,19.60
2024-01-29T22:09:08.847Z,19.07
2024-01-29T22:12:10.640Z,16.27
2024-01-29T22:15:12.555Z,16.43
2024-01-29T22:18:14.431Z,18.70
2024-01-29T22:21:16.370Z,17.37
2024-01-29T22:24:18.339Z,18.53
2024-01-29T22:27:20.149Z,15.97
2024-01-29T22:30:22.039Z,20.83
2024-01-29T22:33:27.397Z,17.23
2024-01-29T22:36:29.294Z,18.40
2024-01-29T22:39:31.131Z,16.00
2024-01-29T22:42:32.973Z,18.73
2024-01-29T22:45:35.549Z,18.23
2024-01-29T22:48:37.510Z,17.87
2024-01-29T22:51:46.943Z,16.47
2024-01-29T22:54:48.966Z,18.00
2024-01-29T22:57:51.029Z,18.87
2024-01-29T23:00:54.538Z,21.07
2024-01-29T23:03:56.592Z,18.30
2024-01-29T23:06:58.510Z,17.83
2024-01-29T23:10:00.514Z,18.17
2024-01-29T23:13:02.497Z,23.83
2024-01-29T23:16:04.696Z,22.20
2024-01-29T23:19:06.894Z,19.33
2024-01-29T23:22:08.840Z,21.17
2024-01-29T23:25:10.766Z,17.47
2024-01-29T23:28:12.667Z,16.73
2024-01-29T23:31:14.535Z,15.40
2024-01-29T23:34:16.485Z,14.60
2024-01-29T23:37:25.359Z,17.77
2024-01-29T23:40:27.334Z,14.37
2024-01-29T23:43:29.254Z,14.93
2024-01-29T23:46:31.198Z,17.47
2024-01-29T23:49:33.154Z,15.97
2024-01-29T23:52:35.037Z,15.23
2024-01-29T23:55:36.876Z,15.87
2024-01-29T23:58:38.851Z,14.60
